Time,TemperatureF,DewpointF,PressureIn,WindDirection,WindDirectionDegrees,WindSpeedMPH,WindSpeedGustMPH,Humidity,HourlyPrecipIn,Conditions,Clouds,dailyrainin,SoftwareType,DateUTC
2013-01-07 00:00:00,32.3,30.2,29.70,SW,215,2.0,18.0,92,0.00,,,0.01,Wunderground v.1.15,2013-01-07 05:00:00,
2013-01-07 00:05:00,32.2,30.1,29.71,WSW,248,1.0,1.0,92,0.00,,,0.01,Wunderground v.1.15,2013-01-07 05:05:00,
2013-01-07 00:10:00,32.1,30.0,29.71,SW,221,1.0,2.0,92,0.00,,,0.00,Wunderground v.1.15,2013-01-07 05:10:00,
2013-01-07 00:15:00,32.1,30.0,29.71,WSW,255,2.0,2.0,92,0.00,,,0.00,Wunderground v.1.15,2013-01-07 05:15:00,
2013-01-07 00:20:00,32.1,30.0,29.71,West,259,2.0,3.0,92,0.00,,,0.00,Wunderground v.1.15,2013-01-07 05:20:00,
2013-01-07 00:25:00,32.1,30.0,29.71,WSW,246,1.0,18.0,92,0.00,,,0.00,Wunderground v.1.15,2013-01-07 05:25:00,
2013-01-07 00:30:00,32.1,30.3,29.71,NNW,337,2.0,18.0,93,0.00,,,0.00,Wunderground v.1.15,2013-01-07 05:30:00,
2013-01-07 00:35:00,32.2,30.4,29.72,ENE,68,3.0,3.0,93,0.00,,,0.00,Wunderground v.1.15,2013-01-07 05:35:00,
2013-01-07 00:45:00,32.2,30.4,29.72,NE,44,2.0,2.0,93,0.00,,,0.00,Wunderground v.1.15,2013-01-07 05:45:00,
2013-01-07 00:50:00,32.2,30.4,29.72,NNW,336,1.0,18.0,93,0.00,,,0.00,Wunderground v.1.15,2013-01-07 05:50:00,
2013-01-07 00:55:00,32.3,30.5,29.72,West,278,2.0,2.0,93,0.00,,,0.00,Wunderground v.1.15,2013-01-07 05:55:00,
2013-01-07 01:00:00,32.3,30.5,29.72,West,268,2.0,18.0,93,0.00,,,0.00,Wunderground v.1.15,2013-01-07 06:00:00,
2013-01-07 01:05:00,32.3,30.5,29.72,NW,321,1.0,1.0,93,0.00,,,0.00,Wunderground v.1.15,2013-01-07 06:05:00,
2013-01-07 01:10:00,32.4,30.6,29.73,South,173,1.0,18.0,93,0.00,,,0.00,Wunderground v.1.15,2013-01-07 06:10:00,
2013-01-07 01:16:00,32.4,30.9,29.73,ESE,113,2.0,2.0,94,0.00,,,0.00,Wunderground v.1.15,2013-01-07 06:16:00,
2013-01-07 01:21:00,32.4,30.9,29.74,East,90,1.0,18.0,94,0.00,,,0.00,Wunderground v.1.15,2013-01-07 06:21:00,
2013-01-07 01:30:00,32.3,30.8,29.74,ESE,107,2.0,2.0,94,0.00,,,0.00,Wunderground v.1.15,2013-01-07 06:30:00,
2013-01-07 01:35:00,32.2,30.7,29.74,ENE,75,2.0,18.0,94,0.00,,,0.00,Wunderground v.1.15,2013-01-07 06:35:00,
2013-01-07 01:40:00,32.2,30.7,29.75,NW,308,2.0,18.0,94,0.00,,,0.00,Wunderground v.1.15,2013-01-07 06:40:00,
2013-01-07 01:46:00,32.1,30.8,29.75,ENE,60,3.0,3.0,95,0.00,,,0.00,Wunderground v.1.15,2013-01-07 06:46:00,
2013-01-07 01:51:00,32.0,30.7,29.76,NE,42,3.0,18.0,95,0.00,,,0.00,Wunderground v.1.15,2013-01-07 06:51:00,
2013-01-07 01:56:00,32.0,30.7,29.76,East,93,3.0,18.0,95,0.00,,,0.00,Wunderground v.1.15,2013-01-07 06:56:00,
2013-01-07 02:01:00,31.9,30.6,29.77,NNE,25,3.0,18.0,95,0.00,,,0.00,Wunderground v.1.15,2013-01-07 07:01:00,
2013-01-07 02:06:00,31.8,30.5,29.77,ESE,117,3.0,18.0,95,0.00,,,0.00,Wunderground v.1.15,2013-01-07 07:06:00,
2013-01-07 02:11:00,31.6,30.3,29.78,East,85,3.0,18.0,95,0.00,,,0.00,Wunderground v.1.15,2013-01-07 07:11:00,
2013-01-07 02:20:00,31.0,29.7,29.79,ENE,78,4.0,4.0,95,0.00,,,0.00,Wunderground v.1.15,2013-01-07 07:20:00,
2013-01-07 02:25:00,30.7,29.4,29.79,East,84,4.0,4.0,95,0.00,,,0.00,Wunderground v.1.15,2013-01-07 07:25:00,
2013-01-07 02:30:00,30.6,29.3,29.79,East,87,3.0,18.0,95,0.00,,,0.00,Wunderground v.1.15,2013-01-07 07:30:00,
2013-01-07 02:35:00,30.4,29.1,29.80,NE,54,2.0,2.0,95,0.00,,,0.00,Wunderground v.1.15,2013-01-07 07:35:00,
2013-01-07 02:40:00,30.1,28.8,29.80,ESE,118,2.0,7.0,95,0.00,,,0.00,Wunderground v.1.15,2013-01-07 07:40:00,
2013-01-07 02:45:00,29.5,28.2,29.81,ENE,71,3.0,3.0,95,0.00,,,0.00,Wunderground v.1.15,2013-01-07 07:45:00,
2013-01-07 02:55:00,28.5,27.3,29.81,East,90,3.0,3.0,95,0.00,,,0.00,Wunderground v.1.15,2013-01-07 07:55:00,
2013-01-07 03:00:00,28.2,27.0,29.81,ENE,76,3.0,18.0,95,0.00,,,0.00,Wunderground v.1.15,2013-01-07 08:00:00,
2013-01-07 03:05:00,27.9,26.7,29.81,NNE,18,1.0,18.0,95,0.00,,,0.00,Wunderground v.1.15,2013-01-07 08:05:00,
2013-01-07 03:10:00,27.6,26.4,29.81,ENE,70,2.0,18.0,95,0.00,,,0.00,Wunderground v.1.15,2013-01-07 08:10:00,
2013-01-07 03:15:00,27.4,26.2,29.82,West,267,2.0,2.0,95,0.00,,,0.00,Wunderground v.1.15,2013-01-07 08:15:00,
2013-01-07 03:20:00,27.2,26.0,29.82,East,79,2.0,18.0,95,0.00,,,0.00,Wunderground v.1.15,2013-01-07 08:20:00,
2013-01-07 03:30:00,27.0,25.8,29.83,North,5,1.0,3.0,95,0.00,,,0.00,Wunderground v.1.15,2013-01-07 08:30:00,
2013-01-07 03:35:00,26.9,25.7,29.84,ENE,69,2.0,2.0,95,0.00,,,0.00,Wunderground v.1.15,2013-01-07 08:35:00,
2013-01-07 03:40:00,26.8,25.6,29.84,ENE,62,2.0,18.0,95,0.00,,,0.00,Wunderground v.1.15,2013-01-07 08:40:00,
2013-01-07 03:45:00,26.7,25.5,29.84,ESE,107,2.0,2.0,95,0.00,,,0.00,Wunderground v.1.15,2013-01-07 08:45:00,
2013-01-07 03:50:00,26.6,25.4,29.84,ESE,109,3.0,3.0,95,0.00,,,0.00,Wunderground v.1.15,2013-01-07 08:50:00,
2013-01-07 04:00:00,26.3,25.1,29.85,ENE,73,2.0,18.0,95,0.00,,,0.00,Wunderground v.1.15,2013-01-07 09:00:00,
2013-01-07 04:05:00,26.2,25.0,29.85,East,82,1.0,18.0,95,0.00,,,0.00,Wunderground v.1.15,2013-01-07 09:05:00,
2013-01-07 04:10:00,25.9,24.7,29.85,East,82,1.0,18.0,95,0.00,,,0.00,Wunderground v.1.15,2013-01-07 09:10:00,
2013-01-07 04:15:00,25.6,24.4,29.85,ENE,74,2.0,2.0,95,0.00,,,0.00,Wunderground v.1.15,2013-01-07 09:15:00,
2013-01-07 04:20:00,25.4,24.2,29.86,East,92,1.0,18.0,95,0.00,,,0.00,Wunderground v.1.15,2013-01-07 09:20:00,
2013-01-07 04:25:00,25.2,24.0,29.86,ESE,102,2.0,2.0,95,0.00,,,0.00,Wunderground v.1.15,2013-01-07 09:25:00,
2013-01-07 04:31:00,25.1,23.9,29.86,ENE,72,2.0,18.0,95,0.00,,,0.00,Wunderground v.1.15,2013-01-07 09:31:00,
2013-01-07 04:36:00,25.0,23.8,29.86,ENE,73,1.0,1.0,95,0.00,,,0.00,Wunderground v.1.15,2013-01-07 09:36:00,
2013-01-07 04:41:00,25.0,23.8,29.87,East,82,1.0,18.0,95,0.00,,,0.00,Wunderground v.1.15,2013-01-07 09:41:00,
2013-01-07 04:46:00,24.9,23.7,29.87,East,99,2.0,2.0,95,0.00,,,0.00,Wunderground v.1.15,2013-01-07 09:46:00,
2013-01-07 04:55:00,24.8,23.6,29.87,East,87,2.0,18.0,95,0.00,,,0.00,Wunderground v.1.15,2013-01-07 09:55:00,
2013-01-07 05:01:00,24.8,23.6,29.88,East,87,2.0,18.0,95,0.00,,,0.00,Wunderground v.1.15,2013-01-07 10:01:00,
2013-01-07 05:06:00,24.7,23.5,29.88,East,88,1.0,1.0,95,0.00,,,0.00,Wunderground v.1.15,2013-01-07 10:06:00,
2013-01-07 05:11:00,24.7,23.5,29.88,East,87,1.0,18.0,95,0.00,,,0.00,Wunderground v.1.15,2013-01-07 10:11:00,
2013-01-07 05:16:00,24.7,23.5,29.88,East,87,1.0,1.0,95,0.00,,,0.00,Wunderground v.1.15,2013-01-07 10:16:00,
2013-01-07 05:21:00,24.5,23.3,29.89,East,86,2.0,2.0,95,0.00,,,0.00,Wunderground v.1.15,2013-01-07 10:21:00,
2013-01-07 05:26:00,24.4,23.2,29.89,East,80,3.0,18.0,95,0.00,,,0.00,Wunderground v.1.15,2013-01-07 10:26:00,
2013-01-07 05:36:00,24.0,22.8,29.90,ENE,72,2.0,2.0,95,0.00,,,0.00,Wunderground v.1.15,2013-01-07 10:36:00,
2013-01-07 05:40:00,24.0,22.8,29.90,ENE,60,2.0,18.0,95,0.00,,,0.00,Wunderground v.1.15,2013-01-07 10:40:00,
2013-01-07 05:45:00,23.9,22.7,29.90,East,83,2.0,2.0,95,0.00,,,0.00,Wunderground v.1.15,2013-01-07 10:45:00,
2013-01-07 05:51:00,23.9,22.7,29.91,ENE,73,2.0,18.0,95,0.00,,,0.00,Wunderground v.1.15,2013-01-07 10:51:00,
2013-01-07 05:56:00,23.8,22.6,29.91,ENE,74,2.0,2.0,95,0.00,,,0.00,Wunderground v.1.15,2013-01-07 10:56:00,
2013-01-07 06:01:00,23.7,22.5,29.92,East,79,2.0,3.0,95,0.00,,,0.00,Wunderground v.1.15,2013-01-07 11:01:00,
2013-01-07 06:10:00,23.6,22.4,29.92,East,83,2.0,18.0,95,0.00,,,0.00,Wunderground v.1.15,2013-01-07 11:10:00,
2013-01-07 06:15:00,23.5,22.3,29.93,East,80,3.0,3.0,95,0.00,,,0.00,Wunderground v.1.15,2013-01-07 11:15:00,
2013-01-07 06:20:00,23.4,22.2,29.93,East,89,2.0,18.0,95,0.00,,,0.00,Wunderground v.1.15,2013-01-07 11:20:00,
2013-01-07 06:25:00,23.3,22.1,29.93,East,88,2.0,18.0,95,0.00,,,0.00,Wunderground v.1.15,2013-01-07 11:25:00,
2013-01-07 06:31:00,23.2,22.0,29.93,ENE,77,2.0,18.0,95,0.00,,,0.00,Wunderground v.1.15,2013-01-07 11:31:00,
2013-01-07 06:40:00,23.0,21.8,29.94,ENE,66,1.0,18.0,95,0.00,,,0.00,Wunderground v.1.15,2013-01-07 11:40:00,
2013-01-07 06:45:00,22.9,21.7,29.94,ESE,115,2.0,18.0,95,0.00,,,0.00,Wunderground v.1.15,2013-01-07 11:45:00,
2013-01-07 06:50:00,22.9,21.7,29.94,East,79,3.0,18.0,95,0.00,,,0.00,Wunderground v.1.15,2013-01-07 11:50:00,
2013-01-07 06:55:00,22.8,21.6,29.95,ENE,78,3.0,3.0,95,0.00,,,0.00,Wunderground v.1.15,2013-01-07 11:55:00,
2013-01-07 07:00:00,22.7,21.5,29.95,ESE,114,2.0,5.0,95,0.00,,,0.00,Wunderground v.1.15,2013-01-07 12:00:00,
2013-01-07 07:05:00,22.6,21.1,29.95,East,81,2.0,18.0,94,0.00,,,0.00,Wunderground v.1.15,2013-01-07 12:05:00,
2013-01-07 07:15:00,22.5,21.0,29.96,East,93,2.0,2.0,94,0.00,,,0.00,Wunderground v.1.15,2013-01-07 12:15:00,
2013-01-07 07:20:00,22.4,20.9,29.96,NE,43,1.0,18.0,94,0.00,,,0.00,Wunderground v.1.15,2013-01-07 12:20:00,
2013-01-07 07:25:00,22.3,20.8,29.97,East,100,2.0,18.0,94,0.00,,,0.00,Wunderground v.1.15,2013-01-07 12:25:00,
2013-01-07 07:30:00,22.2,20.7,29.97,East,90,2.0,18.0,94,0.00,,,0.00,Wunderground v.1.15,2013-01-07 12:30:00,
2013-01-07 07:35:00,22.0,20.5,29.97,East,90,3.0,18.0,94,0.00,,,0.00,Wunderground v.1.15,2013-01-07 12:35:00,
2013-01-07 07:45:00,21.9,20.4,29.98,East,82,3.0,3.0,94,0.00,,,0.00,Wunderground v.1.15,2013-01-07 12:45:00,
2013-01-07 07:50:00,21.8,20.3,29.98,East,80,2.0,18.0,94,0.00,,,0.00,Wunderground v.1.15,2013-01-07 12:50:00,
2013-01-07 07:55:00,21.8,20.3,29.99,East,99,2.0,2.0,94,0.00,,,0.00,Wunderground v.1.15,2013-01-07 12:55:00,
2013-01-07 08:00:00,21.8,20.3,29.99,ENE,69,2.0,18.0,94,0.00,,,0.00,Wunderground v.1.15,2013-01-07 13:00:00,
2013-01-07 08:05:00,21.8,20.3,29.99,ENE,74,2.0,2.0,94,0.00,,,0.00,Wunderground v.1.15,2013-01-07 13:05:00,
2013-01-07 08:10:00,21.7,20.2,30.00,NE,52,2.0,18.0,94,0.00,,,0.00,Wunderground v.1.15,2013-01-07 13:10:00,
2013-01-07 08:20:00,21.7,20.2,30.00,ENE,70,2.0,18.0,94,0.00,,,0.00,Wunderground v.1.15,2013-01-07 13:20:00,
2013-01-07 08:25:00,21.7,20.2,30.00,ENE,76,1.0,18.0,94,0.00,,,0.00,Wunderground v.1.15,2013-01-07 13:25:00,
2013-01-07 08:30:00,21.7,20.2,30.01,ENE,75,2.0,18.0,94,0.00,,,0.00,Wunderground v.1.15,2013-01-07 13:30:00,
2013-01-07 08:35:00,21.7,20.2,30.01,NE,55,2.0,2.0,94,0.00,,,0.00,Wunderground v.1.15,2013-01-07 13:35:00,
2013-01-07 08:40:00,21.7,20.2,30.02,East,88,2.0,18.0,94,0.00,,,0.00,Wunderground v.1.15,2013-01-07 13:40:00,
2013-01-07 08:50:00,21.7,20.2,30.02,ENE,74,1.0,18.0,94,0.00,,,0.00,Wunderground v.1.15,2013-01-07 13:50:00,
2013-01-07 08:55:00,21.7,20.2,30.02,NNE,12,1.0,1.0,94,0.00,,,0.00,Wunderground v.1.15,2013-01-07 13:55:00,
2013-01-07 09:00:00,21.7,20.2,30.03,NNE,31,1.0,18.0,94,0.00,,,0.00,Wunderground v.1.15,2013-01-07 14:00:00,
2013-01-07 09:05:00,21.7,20.2,30.03,ENE,76,1.0,18.0,94,0.00,,,0.00,Wunderground v.1.15,2013-01-07 14:05:00,
2013-01-07 09:10:00,21.7,20.2,30.03,East,91,2.0,18.0,94,0.00,,,0.00,Wunderground v.1.15,2013-01-07 14:10:00,
2013-01-07 09:15:00,21.7,20.2,30.03,NNE,26,2.0,18.0,94,0.00,,,0.00,Wunderground v.1.15,2013-01-07 14:15:00,
2013-01-07 09:21:00,21.7,20.2,30.03,NNE,17,2.0,18.0,94,0.00,,,0.00,Wunderground v.1.15,2013-01-07 14:21:00,
2013-01-07 09:26:00,21.8,20.1,30.03,NNE,28,1.0,1.0,93,0.00,,,0.00,Wunderground v.1.15,2013-01-07 14:26:00,
2013-01-07 09:35:00,21.9,20.2,30.03,NNE,28,0.0,18.0,93,0.00,,,0.00,Wunderground v.1.15,2013-01-07 14:35:00,
2013-01-07 09:40:00,22.0,20.3,30.04,NE,43,1.0,18.0,93,0.00,,,0.00,Wunderground v.1.15,2013-01-07 14:40:00,
2013-01-07 09:45:00,22.0,20.3,30.03,NE,43,0.0,18.0,93,0.00,,,0.00,Wunderground v.1.15,2013-01-07 14:45:00,
2013-01-07 09:51:00,22.1,20.6,30.03,NE,40,1.0,18.0,94,0.00,,,0.00,Wunderground v.1.15,2013-01-07 14:51:00,
2013-01-07 09:56:00,22.1,20.4,30.04,NE,40,1.0,1.0,93,0.00,,,0.00,Wunderground v.1.15,2013-01-07 14:56:00,
2013-01-07 10:01:00,22.2,20.5,30.04,NE,40,0.0,18.0,93,0.00,,,0.00,Wunderground v.1.15,2013-01-07 15:01:00,
2013-01-07 10:06:00,22.2,20.5,30.05,WNW,296,1.0,1.0,93,0.00,,,0.00,Wunderground v.1.15,2013-01-07 15:06:00,
2013-01-07 10:11:00,22.2,20.5,30.05,NNW,346,1.0,18.0,93,0.00,,,0.00,Wunderground v.1.15,2013-01-07 15:11:00,
2013-01-07 10:16:00,22.1,20.4,30.05,East,92,1.0,1.0,93,0.00,,,0.00,Wunderground v.1.15,2013-01-07 15:16:00,
2013-01-07 10:26:00,22.4,20.7,30.05,East,92,0.0,18.0,93,0.00,,,0.00,Wunderground v.1.15,2013-01-07 15:26:00,
2013-01-07 10:31:00,22.4,20.7,30.06,East,84,0.0,18.0,93,0.00,,,0.00,Wunderground v.1.15,2013-01-07 15:31:00,
2013-01-07 10:36:00,22.5,20.5,30.05,East,84,1.0,1.0,92,0.00,,,0.00,Wunderground v.1.15,2013-01-07 15:36:00,
2013-01-07 10:41:00,22.4,20.4,30.06,ENE,75,1.0,18.0,92,0.00,,,0.00,Wunderground v.1.15,2013-01-07 15:41:00,
2013-01-07 10:46:00,22.4,20.4,30.06,WNW,285,1.0,1.0,92,0.00,,,0.00,Wunderground v.1.15,2013-01-07 15:46:00,
2013-01-07 10:51:00,22.5,20.5,30.06,ESE,104,1.0,18.0,92,0.00,,,0.00,Wunderground v.1.15,2013-01-07 15:51:00,
2013-01-07 11:01:00,22.7,20.7,30.05,WSW,250,1.0,18.0,92,0.00,,,0.00,Wunderground v.1.15,2013-01-07 16:01:00,
2013-01-07 11:06:00,22.9,20.9,30.05,WSW,250,0.0,18.0,92,0.00,,,0.00,Wunderground v.1.15,2013-01-07 16:06:00,
2013-01-07 11:11:00,23.1,21.1,30.05,North,5,0.0,18.0,92,0.00,,,0.00,Wunderground v.1.15,2013-01-07 16:11:00,
2013-01-07 11:16:00,23.1,21.1,30.05,East,82,0.0,18.0,92,0.00,,,0.00,Wunderground v.1.15,2013-01-07 16:16:00,
2013-01-07 11:21:00,23.0,20.8,30.05,North,5,1.0,18.0,91,0.00,,,0.00,Wunderground v.1.15,2013-01-07 16:21:00,
2013-01-07 11:30:00,22.8,20.3,30.05,West,271,2.0,18.0,90,0.00,,,0.00,Wunderground v.1.15,2013-01-07 16:30:00,
2013-01-07 11:36:00,23.0,20.5,30.05,SSW,209,2.0,2.0,90,0.00,,,0.00,Wunderground v.1.15,2013-01-07 16:36:00,
2013-01-07 11:41:00,23.2,20.4,30.05,South,178,1.0,18.0,89,0.00,,,0.00,Wunderground v.1.15,2013-01-07 16:41:00,
2013-01-07 11:46:00,23.4,20.6,30.05,NE,48,1.0,1.0,89,0.00,,,0.00,Wunderground v.1.15,2013-01-07 16:46:00,
2013-01-07 11:51:00,23.6,20.8,30.05,East,82,1.0,18.0,89,0.00,,,0.00,Wunderground v.1.15,2013-01-07 16:51:00,
2013-01-07 11:56:00,23.7,20.7,30.05,North,5,0.0,18.0,88,0.00,,,0.00,Wunderground v.1.15,2013-01-07 16:56:00,
2013-01-07 12:05:00,23.7,20.7,30.05,ENE,78,1.0,18.0,88,0.00,,,0.00,Wunderground v.1.15,2013-01-07 17:05:00,
2013-01-07 12:11:00,23.8,20.8,30.05,East,80,1.0,18.0,88,0.00,,,0.00,Wunderground v.1.15,2013-01-07 17:11:00,
2013-01-07 12:16:00,23.8,20.8,30.04,SW,232,1.0,1.0,88,0.00,,,0.00,Wunderground v.1.15,2013-01-07 17:16:00,
2013-01-07 12:21:00,23.8,20.8,30.04,SW,233,1.0,2.0,88,0.00,,,0.00,Wunderground v.1.15,2013-01-07 17:21:00,
2013-01-07 12:26:00,23.8,20.5,30.04,WSW,248,2.0,18.0,87,0.00,,,0.00,Wunderground v.1.15,2013-01-07 17:26:00,
2013-01-07 12:36:00,23.5,20.2,30.04,WNW,298,2.0,2.0,87,0.00,,,0.00,Wunderground v.1.15,2013-01-07 17:36:00,
2013-01-07 12:41:00,23.6,20.6,30.04,WNW,295,1.0,3.0,88,0.00,,,0.00,Wunderground v.1.15,2013-01-07 17:41:00,
2013-01-07 12:51:00,23.8,20.8,30.04,WNW,291,1.0,18.0,88,0.00,,,0.00,Wunderground v.1.15,2013-01-07 17:51:00,
2013-01-07 13:00:00,23.8,20.8,30.04,East,80,1.0,18.0,88,0.00,,,0.00,Wunderground v.1.15,2013-01-07 18:00:00,
2013-01-07 13:05:00,23.8,20.8,30.04,SW,234,1.0,18.0,88,0.00,,,0.00,Wunderground v.1.15,2013-01-07 18:05:00,
2013-01-07 13:11:00,23.8,20.8,30.05,SW,234,1.0,18.0,88,0.00,,,0.00,Wunderground v.1.15,2013-01-07 18:11:00,
2013-01-07 13:16:00,24.0,21.0,30.05,SW,234,1.0,1.0,88,0.00,,,0.00,Wunderground v.1.15,2013-01-07 18:16:00,
2013-01-07 13:21:00,24.1,21.1,30.05,SW,234,1.0,3.0,88,0.00,,,0.00,Wunderground v.1.15,2013-01-07 18:21:00,
2013-01-07 13:26:00,24.2,20.9,30.05,West,273,1.0,18.0,87,0.00,,,0.00,Wunderground v.1.15,2013-01-07 18:26:00,
2013-01-07 13:31:00,24.2,20.9,30.05,ENE,69,1.0,18.0,87,0.00,,,0.00,Wunderground v.1.15,2013-01-07 18:31:00,
2013-01-07 13:36:00,24.3,21.0,30.04,SW,220,1.0,18.0,87,0.00,,,0.00,Wunderground v.1.15,2013-01-07 18:36:00,
2013-01-07 13:46:00,24.5,21.2,30.04,WSW,252,1.0,18.0,87,0.00,,,0.00,Wunderground v.1.15,2013-01-07 18:46:00,
2013-01-07 13:51:00,24.8,21.5,30.04,WSW,257,0.0,18.0,87,0.00,,,0.00,Wunderground v.1.15,2013-01-07 18:51:00,
2013-01-07 13:56:00,24.8,21.2,30.04,WNW,290,2.0,18.0,86,0.00,,,0.00,Wunderground v.1.15,2013-01-07 18:56:00,
2013-01-07 14:01:00,24.9,21.3,30.04,WSW,250,2.0,18.0,86,0.00,,,0.00,Wunderground v.1.15,2013-01-07 19:01:00,
2013-01-07 14:06:00,24.9,21.3,30.04,WSW,250,2.0,18.0,86,0.00,,,0.00,Wunderground v.1.15,2013-01-07 19:06:00,
2013-01-07 14:11:00,24.9,21.0,30.04,North,349,2.0,18.0,85,0.00,,,0.00,Wunderground v.1.15,2013-01-07 19:11:00,
2013-01-07 14:20:00,24.8,20.9,30.04,West,273,3.0,18.0,85,0.00,,,0.00,Wunderground v.1.15,2013-01-07 19:20:00,
2013-01-07 14:25:00,25.0,21.1,30.04,WSW,244,3.0,18.0,85,0.00,,,0.00,Wunderground v.1.15,2013-01-07 19:25:00,
2013-01-07 14:30:00,25.0,21.1,30.04,WSW,258,3.0,18.0,85,0.00,,,0.00,Wunderground v.1.15,2013-01-07 19:30:00,
2013-01-07 14:35:00,24.9,21.0,30.04,WSW,248,4.0,18.0,85,0.00,,,0.00,Wunderground v.1.15,2013-01-07 19:35:00,
2013-01-07 14:40:00,25.0,21.1,30.04,WSW,252,3.0,18.0,85,0.00,,,0.00,Wunderground v.1.15,2013-01-07 19:40:00,
2013-01-07 14:50:00,25.1,21.2,30.05,West,272,3.0,18.0,85,0.00,,,0.00,Wunderground v.1.15,2013-01-07 19:50:00,
2013-01-07 14:55:00,25.2,21.3,30.05,SSW,200,2.0,2.0,85,0.00,,,0.00,Wunderground v.1.15,2013-01-07 19:55:00,
2013-01-07 15:00:00,25.2,21.3,30.05,West,267,1.0,18.0,85,0.00,,,0.00,Wunderground v.1.15,2013-01-07 20:00:00,
2013-01-07 15:05:00,25.3,21.4,30.05,NNW,333,2.0,18.0,85,0.00,,,0.00,Wunderground v.1.15,2013-01-07 20:05:00,
2013-01-07 15:10:00,25.3,21.1,30.05,West,261,2.0,18.0,84,0.00,,,0.00,Wunderground v.1.15,2013-01-07 20:10:00,
2013-01-07 15:15:00,25.3,21.1,30.05,West,272,2.0,2.0,84,0.00,,,0.00,Wunderground v.1.15,2013-01-07 20:15:00,
2013-01-07 15:25:00,25.4,21.5,30.04,West,270,4.0,18.0,85,0.00,,,0.00,Wunderground v.1.15,2013-01-07 20:25:00,
2013-01-07 15:30:00,25.4,21.5,30.04,West,278,5.0,18.0,85,0.00,,,0.00,Wunderground v.1.15,2013-01-07 20:30:00,
2013-01-07 15:35:00,25.5,21.6,30.04,West,264,5.0,18.0,85,0.00,,,0.00,Wunderground v.1.15,2013-01-07 20:35:00,
2013-01-07 15:40:00,25.5,21.6,30.04,West,271,4.0,18.0,85,0.00,,,0.00,Wunderground v.1.15,2013-01-07 20:40:00,
2013-01-07 15:45:00,25.6,21.7,30.03,West,261,5.0,18.0,85,0.00,,,0.00,Wunderground v.1.15,2013-01-07 20:45:00,
2013-01-07 15:55:00,25.5,21.3,30.04,West,271,6.0,6.0,84,0.00,,,0.00,Wunderground v.1.15,2013-01-07 20:55:00,
2013-01-07 16:00:00,25.4,21.2,30.04,West,270,5.0,18.0,84,0.00,,,0.00,Wunderground v.1.15,2013-01-07 21:00:00,
2013-01-07 16:05:00,25.4,21.2,30.04,West,270,4.0,18.0,84,0.00,,,0.00,Wunderground v.1.15,2013-01-07 21:05:00,
2013-01-07 16:10:00,25.3,21.1,30.04,West,270,4.0,18.0,84,0.00,,,0.00,Wunderground v.1.15,2013-01-07 21:10:00,
2013-01-07 16:15:00,25.2,21.0,30.03,West,270,4.0,18.0,84,0.00,,,0.00,Wunderground v.1.15,2013-01-07 21:15:00,
2013-01-07 16:20:00,25.0,20.8,30.03,West,270,5.0,18.0,84,0.00,,,0.00,Wunderground v.1.15,2013-01-07 21:20:00,
2013-01-07 16:30:00,24.3,20.2,30.03,West,270,5.0,18.0,84,0.00,,,0.00,Wunderground v.1.15,2013-01-07 21:30:00,
2013-01-07 16:35:00,24.1,20.2,30.03,West,270,3.0,3.0,85,0.00,,,0.00,Wunderground v.1.15,2013-01-07 21:35:00,
2013-01-07 16:40:00,24.3,20.7,30.02,West,270,2.0,18.0,86,0.00,,,0.00,Wunderground v.1.15,2013-01-07 21:40:00,
2013-01-07 16:45:00,24.0,20.1,30.02,West,270,1.0,1.0,85,0.00,,,0.00,Wunderground v.1.15,2013-01-07 21:45:00,
2013-01-07 16:50:00,23.9,20.3,30.02,West,270,1.0,18.0,86,0.00,,,0.00,Wunderground v.1.15,2013-01-07 21:50:00,
2013-01-07 17:00:00,23.4,19.8,30.01,West,270,0.0,18.0,86,0.00,,,0.00,Wunderground v.1.15,2013-01-07 22:00:00,
2013-01-07 17:05:00,22.9,19.3,30.01,West,270,1.0,18.0,86,0.00,,,0.00,Wunderground v.1.15,2013-01-07 22:05:00,
2013-01-07 17:10:00,22.6,19.0,30.01,West,270,1.0,18.0,86,0.00,,,0.00,Wunderground v.1.15,2013-01-07 22:10:00,
2013-01-07 17:15:00,22.7,19.4,30.01,West,270,1.0,18.0,87,0.00,,,0.00,Wunderground v.1.15,2013-01-07 22:15:00,
2013-01-07 17:20:00,22.9,19.6,30.00,West,270,2.0,18.0,87,0.00,,,0.00,Wunderground v.1.15,2013-01-07 22:20:00,
2013-01-07 17:25:00,22.7,19.4,30.00,West,270,3.0,3.0,87,0.00,,,0.00,Wunderground v.1.15,2013-01-07 22:25:00,
2013-01-07 17:35:00,22.9,19.6,30.00,West,270,3.0,3.0,87,0.00,,,0.00,Wunderground v.1.15,2013-01-07 22:35:00,
2013-01-07 17:40:00,22.9,19.6,30.00,West,270,3.0,18.0,87,0.00,,,0.00,Wunderground v.1.15,2013-01-07 22:40:00,
2013-01-07 17:45:00,23.0,20.0,29.99,West,270,3.0,18.0,88,0.00,,,0.00,Wunderground v.1.15,2013-01-07 22:45:00,
2013-01-07 17:50:00,23.0,19.7,29.99,West,270,4.0,18.0,87,0.00,,,0.00,Wunderground v.1.15,2013-01-07 22:50:00,
2013-01-07 17:55:00,22.8,19.5,29.99,West,273,5.0,18.0,87,0.00,,,0.00,Wunderground v.1.15,2013-01-07 22:55:00,
2013-01-07 18:05:00,23.0,20.0,29.99,West,271,7.0,7.0,88,0.00,,,0.00,Wunderground v.1.15,2013-01-07 23:05:00,
2013-01-07 18:10:00,23.0,19.7,29.99,West,265,7.0,18.0,87,0.00,,,0.00,Wunderground v.1.15,2013-01-07 23:10:00,
2013-01-07 18:15:00,22.9,19.6,29.98,West,270,5.0,18.0,87,0.00,,,0.00,Wunderground v.1.15,2013-01-07 23:15:00,
2013-01-07 18:20:00,22.8,19.5,29.98,West,270,3.0,18.0,87,0.00,,,0.00,Wunderground v.1.15,2013-01-07 23:20:00,
2013-01-07 18:25:00,22.6,19.3,29.98,West,270,3.0,18.0,87,0.00,,,0.00,Wunderground v.1.15,2013-01-07 23:25:00,
2013-01-07 18:30:00,22.6,19.6,29.98,West,270,3.0,18.0,88,0.00,,,0.00,Wunderground v.1.15,2013-01-07 23:30:00,
2013-01-07 18:40:00,22.8,19.8,29.97,West,267,7.0,18.0,88,0.00,,,0.00,Wunderground v.1.15,2013-01-07 23:40:00,
2013-01-07 18:45:00,23.5,20.5,29.96,WSW,237,9.0,18.0,88,0.00,,,0.00,Wunderground v.1.15,2013-01-07 23:45:00,
2013-01-07 18:50:00,23.6,20.3,29.96,WSW,242,10.0,18.0,87,0.00,,,0.00,Wunderground v.1.15,2013-01-07 23:50:00,
2013-01-07 18:55:00,24.2,20.9,29.96,WSW,246,11.0,18.0,87,0.00,,,0.00,Wunderground v.1.15,2013-01-07 23:55:00,
2013-01-07 19:00:00,24.7,21.4,29.96,WSW,244,13.0,18.0,87,0.00,,,0.00,Wunderground v.1.15,2013-01-08 00:00:00,
2013-01-07 19:10:00,24.5,20.9,29.96,West,267,11.0,18.0,86,0.00,,,0.00,Wunderground v.1.15,2013-01-08 00:10:00,
2013-01-07 19:15:00,24.6,21.0,29.96,West,259,11.0,18.0,86,0.00,,,0.00,Wunderground v.1.15,2013-01-08 00:15:00,
2013-01-07 19:20:00,24.7,21.1,29.96,WSW,246,13.0,18.0,86,0.00,,,0.00,Wunderground v.1.15,2013-01-08 00:20:00,
2013-01-07 19:25:00,24.7,21.1,29.96,West,261,13.0,18.0,86,0.00,,,0.00,Wunderground v.1.15,2013-01-08 00:25:00,
2013-01-07 19:30:00,24.3,20.7,29.96,WSW,248,12.0,18.0,86,0.00,,,0.00,Wunderground v.1.15,2013-01-08 00:30:00,
2013-01-07 19:35:00,24.4,20.8,29.95,WSW,244,12.0,18.0,86,0.00,,,0.00,Wunderground v.1.15,2013-01-08 00:35:00,
2013-01-07 19:41:00,24.6,21.0,29.95,WSW,240,12.0,18.0,86,0.00,,,0.00,Wunderground v.1.15,2013-01-08 00:41:00,
2013-01-07 19:46:00,25.0,21.4,29.95,West,279,13.0,13.0,86,0.00,,,0.00,Wunderground v.1.15,2013-01-08 00:46:00,
2013-01-07 19:51:00,25.3,21.7,29.95,WSW,252,14.0,14.0,86,0.00,,,0.00,Wunderground v.1.15,2013-01-08 00:51:00,
2013-01-07 19:56:00,25.5,21.6,29.95,WSW,247,14.0,14.0,85,0.00,,,0.00,Wunderground v.1.15,2013-01-08 00:56:00,
2013-01-07 20:01:00,25.3,21.4,29.95,West,261,12.0,18.0,85,0.00,,,0.00,Wunderground v.1.15,2013-01-08 01:01:00,
2013-01-07 20:06:00,25.3,21.4,29.95,West,270,9.0,9.0,85,0.00,,,0.00,Wunderground v.1.15,2013-01-08 01:06:00,
2013-01-07 20:16:00,25.5,21.6,29.95,West,272,7.0,7.0,85,0.00,,,0.00,Wunderground v.1.15,2013-01-08 01:16:00,
2013-01-07 20:21:00,26.0,21.8,29.95,West,267,9.0,9.0,84,0.00,,,0.00,Wunderground v.1.15,2013-01-08 01:21:00,
2013-01-07 20:26:00,25.8,21.6,29.95,WSW,258,8.0,18.0,84,0.00,,,0.00,Wunderground v.1.15,2013-01-08 01:26:00,
2013-01-07 20:31:00,25.7,21.5,29.95,West,273,8.0,18.0,84,0.00,,,0.00,Wunderground v.1.15,2013-01-08 01:31:00,
2013-01-07 20:36:00,26.0,21.8,29.95,West,278,10.0,10.0,84,0.00,,,0.00,Wunderground v.1.15,2013-01-08 01:36:00,
2013-01-07 20:45:00,26.3,21.8,29.95,West,271,11.0,11.0,83,0.00,,,0.00,Wunderground v.1.15,2013-01-08 01:45:00,
2013-01-07 20:50:00,26.2,21.7,29.94,West,275,11.0,18.0,83,0.00,,,0.00,Wunderground v.1.15,2013-01-08 01:50:00,
2013-01-07 20:55:00,25.9,21.7,29.94,West,272,12.0,18.0,84,0.00,,,0.00,Wunderground v.1.15,2013-01-08 01:55:00,
2013-01-07 21:01:00,26.2,22.0,29.94,West,271,12.0,18.0,84,0.00,,,0.00,Wunderground v.1.15,2013-01-08 02:01:00,
2013-01-07 21:06:00,26.0,21.8,29.94,WSW,248,12.0,12.0,84,0.00,,,0.00,Wunderground v.1.15,2013-01-08 02:06:00,
2013-01-07 21:11:00,25.8,21.6,29.94,WSW,254,11.0,18.0,84,0.00,,,0.00,Wunderground v.1.15,2013-01-08 02:11:00,
2013-01-07 21:20:00,26.1,21.9,29.94,West,262,12.0,18.0,84,0.00,,,0.00,Wunderground v.1.15,2013-01-08 02:20:00,
2013-01-07 21:25:00,26.0,21.8,29.93,WNW,285,12.0,12.0,84,0.00,,,0.00,Wunderground v.1.15,2013-01-08 02:25:00,
2013-01-07 21:30:00,25.9,22.0,29.93,West,279,11.0,18.0,85,0.00,,,0.00,Wunderground v.1.15,2013-01-08 02:30:00,
2013-01-07 21:35:00,26.2,22.0,29.93,West,275,11.0,11.0,84,0.00,,,0.00,Wunderground v.1.15,2013-01-08 02:35:00,
2013-01-07 21:40:00,26.2,22.0,29.93,WNW,286,12.0,12.0,84,0.00,,,0.00,Wunderground v.1.15,2013-01-08 02:40:00,
2013-01-07 21:50:00,26.8,22.6,29.93,WSW,239,14.0,18.0,84,0.00,,,0.00,Wunderground v.1.15,2013-01-08 02:50:00,
2013-01-07 21:55:00,27.0,22.5,29.93,West,277,13.0,19.0,83,0.00,,,0.00,Wunderground v.1.15,2013-01-08 02:55:00,
2013-01-07 22:00:00,27.0,22.5,29.93,West,262,13.0,19.0,83,0.00,,,0.00,Wunderground v.1.15,2013-01-08 03:00:00,
2013-01-07 22:05:00,27.2,22.7,29.93,West,266,12.0,18.0,83,0.00,,,0.00,Wunderground v.1.15,2013-01-08 03:05:00,
2013-01-07 22:10:00,27.3,22.8,29.93,West,273,12.0,18.0,83,0.00,,,0.00,Wunderground v.1.15,2013-01-08 03:10:00,
2013-01-07 22:15:00,27.2,22.7,29.94,WSW,250,12.0,12.0,83,0.00,,,0.00,Wunderground v.1.15,2013-01-08 03:15:00,
2013-01-07 22:25:00,27.2,22.4,29.94,WSW,252,11.0,18.0,82,0.00,,,0.00,Wunderground v.1.15,2013-01-08 03:25:00,
2013-01-07 22:30:00,27.3,22.5,29.94,West,277,12.0,18.0,82,0.00,,,0.00,Wunderground v.1.15,2013-01-08 03:30:00,
2013-01-07 22:35:00,27.1,22.3,29.94,West,279,13.0,18.0,82,0.00,,,0.00,Wunderground v.1.15,2013-01-08 03:35:00,
2013-01-07 22:40:00,27.2,22.4,29.94,West,259,14.0,18.0,82,0.00,,,0.00,Wunderground v.1.15,2013-01-08 03:40:00,
2013-01-07 22:45:00,27.3,22.5,29.93,West,265,16.0,16.0,82,0.00,,,0.00,Wunderground v.1.15,2013-01-08 03:45:00,
2013-01-07 22:55:00,27.5,22.4,29.93,West,261,15.0,15.0,81,0.00,,,0.00,Wunderground v.1.15,2013-01-08 03:55:00,
2013-01-07 23:00:00,27.6,22.5,29.94,WSW,256,15.0,18.0,81,0.00,,,0.00,Wunderground v.1.15,2013-01-08 04:00:00,
2013-01-07 23:05:00,27.7,22.6,29.93,WSW,258,14.0,14.0,81,0.00,,,0.00,Wunderground v.1.15,2013-01-08 04:05:00,
2013-01-07 23:10:00,27.7,22.6,29.93,WSW,253,14.0,16.0,81,0.00,,,0.00,Wunderground v.1.15,2013-01-08 04:10:00,
2013-01-07 23:15:00,27.8,22.7,29.93,West,259,15.0,15.0,81,0.00,,,0.00,Wunderground v.1.15,2013-01-08 04:15:00,
2013-01-07 23:20:00,27.7,22.3,29.93,West,260,14.0,18.0,80,0.00,,,0.00,Wunderground v.1.15,2013-01-08 04:20:00,
2013-01-07 23:30:00,27.9,22.5,29.93,West,275,11.0,18.0,80,0.00,,,0.00,Wunderground v.1.15,2013-01-08 04:30:00,
2013-01-07 23:35:00,28.2,22.5,29.93,West,259,11.0,11.0,79,0.00,,,0.00,Wunderground v.1.15,2013-01-08 04:35:00,
2013-01-07 23:40:00,28.3,22.6,29.93,WNW,286,12.0,15.0,79,0.00,,,0.00,Wunderground v.1.15,2013-01-08 04:40:00,
2013-01-07 23:45:00,28.3,22.6,29.93,WSW,252,12.0,12.0,79,0.00,,,0.00,Wunderground v.1.15,2013-01-08 04:45:00,
2013-01-07 23:50:00,28.4,22.4,29.93,WSW,257,10.0,18.0,78,0.00,,,0.00,Wunderground v.1.15,2013-01-08 04:50:00,